Time;durP1;ratioP1;P1;durP2;ratioP2;P2;SDS_P1;SDS_P2;PMS_P1;PMS_P2;Temp;Humidity;BMP_temperature;BMP_pressure;BME280_temperature;BME280_humidity;BME280_pressure;Samples;Min_cycle;Max_cycle;Signal;HPM_P1;HPM_P2
2024/01/06 00:02:12;;;;;;;24.07;11.30;;;;;;;;;;4950872;28;20195;-90
2024/01/06 00:05:19;;;;;;;26.63;10.80;;;;;;;;;;4961674;28;20247;-91
2024/01/06 00:08:29;;;;;;;22.90;10.90;;;;;;;;;;4960911;28;20248;-92
2024/01/06 00:11:43;;;;;;;30.30;11.88;;;;;;;;;;4957733;28;20238;-90
2024/01/06 00:14:49;;;;;;;30.30;13.50;;;;;;;;;;4967872;28;20610;-92
2024/01/06 00:17:54;;;;;;;22.60;10.27;;;;;;;;;;4969112;28;20194;-93
2024/01/06 00:20:59;;;;;;;21.43;11.00;;;;;;;;;;4969324;28;20215;-91
2024/01/06 00:24:06;;;;;;;22.50;10.90;;;;;;;;;;4969153;28;20278;-91
2024/01/06 00:27:16;;;;;;;25.93;11.40;;;;;;;;;;4969953;28;20194;-92
2024/01/06 00:30:21;;;;;;;25.37;10.90;;;;;;;;;;4968689;28;20219;-91
2024/01/06 00:33:27;;;;;;;22.03;9.93;;;;;;;;;;4970247;28;20215;-93
2024/01/06 00:36:32;;;;;;;26.97;11.33;;;;;;;;;;4971321;28;20186;-92
2024/01/06 00:39:38;;;;;;;19.90;10.23;;;;;;;;;;4969948;29;20194;-90
2024/01/06 00:42:45;;;;;;;21.43;10.70;;;;;;;;;;4969793;28;20190;-92
2024/01/06 00:45:50;;;;;;;23.83;11.00;;;;;;;;;;4968877;28;20190;-92
2024/01/06 00:48:56;;;;;;;23.13;11.60;;;;;;;;;;4969493;28;20202;-93
2024/01/06 00:52:01;;;;;;;19.30;9.77;;;;;;;;;;4980524;28;20182;-93
2024/01/06 00:55:06;;;;;;;22.00;10.00;;;;;;;;;;4969251;28;20315;-92
2024/01/06 00:58:13;;;;;;;24.47;11.40;;;;;;;;;;4968342;28;20190;-92
2024/01/06 01:01:18;;;;;;;24.53;10.70;;;;;;;;;;4969672;28;20362;-93
2024/01/06 01:04:24;;;;;;;20.57;10.57;;;;;;;;;;4969310;28;20191;-92
2024/01/06 01:07:29;;;;;;;19.53;10.40;;;;;;;;;;4970175;28;20761;-92
2024/01/06 01:10:35;;;;;;;23.23;10.53;;;;;;;;;;4972134;28;20218;-92
2024/01/06 01:13:42;;;;;;;21.80;9.97;;;;;;;;;;4973225;28;20186;-92
2024/01/06 01:16:47;;;;;;;23.67;10.63;;;;;;;;;;4974258;28;20175;-91
2024/01/06 01:19:55;;;;;;;23.60;10.00;;;;;;;;;;4973621;28;20191;-92
2024/01/06 01:23:01;;;;;;;22.50;9.97;;;;;;;;;;4972712;28;20190;-91
2024/01/06 01:26:07;;;;;;;18.23;9.75;;;;;;;;;;4970999;28;20186;-92
2024/01/06 01:29:13;;;;;;;25.00;11.60;;;;;;;;;;4971377;28;20201;-93
2024/01/06 01:32:18;;;;;;;25.63;11.43;;;;;;;;;;4972119;28;20202;-92
2024/01/06 01:35:23;;;;;;;23.87;10.80;;;;;;;;;;4967049;28;20195;-94
2024/01/06 01:38:29;;;;;;;21.83;10.60;;;;;;;;;;4953683;28;20183;-91
2024/01/06 01:41:35;;;;;;;24.53;10.50;;;;;;;;;;4954952;28;20255;-93
2024/01/06 01:44:42;;;;;;;21.63;10.73;;;;;;;;;;4953982;28;20257;-91
2024/01/06 01:47:48;;;;;;;24.67;10.27;;;;;;;;;;4954432;28;20210;-91
2024/01/06 01:50:55;;;;;;;20.30;10.47;;;;;;;;;;4954360;28;20218;-91
2024/01/06 01:54:02;;;;;;;20.58;10.07;;;;;;;;;;4954482;28;20175;-93
2024/01/06 01:57:08;;;;;;;24.70;10.47;;;;;;;;;;4953483;28;20192;-95
2024/01/06 02:00:15;;;;;;;21.67;10.17;;;;;;;;;;4951974;28;20579;-90
2024/01/06 02:03:20;;;;;;;24.57;10.90;;;;;;;;;;4951972;29;20191;-92
2024/01/06 02:06:26;;;;;;;20.17;10.30;;;;;;;;;;4956038;28;20561;-91
2024/01/06 02:09:32;;;;;;;20.80;10.33;;;;;;;;;;4950543;29;20215;-92
2024/01/06 02:12:37;;;;;;;23.33;11.37;;;;;;;;;;4950794;29;20673;-94
2024/01/06 02:15:43;;;;;;;19.20;9.93;;;;;;;;;;4950605;29;20184;-92
2024/01/06 02:18:49;;;;;;;23.50;11.40;;;;;;;;;;4950287;28;20254;-92
2024/01/06 02:21:55;;;;;;;24.37;10.80;;;;;;;;;;4950149;28;20192;-91
2024/01/06 02:25:01;;;;;;;23.97;10.07;;;;;;;;;;4949887;29;20674;-92
2024/01/06 02:28:06;;;;;;;19.63;9.80;;;;;;;;;;4950889;29;20208;-92
2024/01/06 02:31:11;;;;;;;20.00;9.87;;;;;;;;;;4951348;28;20239;-91
2024/01/06 02:34:16;;;;;;;22.17;10.17;;;;;;;;;;4950849;29;20174;-92
2024/01/06 02:37:23;;;;;;;18.67;10.00;;;;;;;;;;4950057;28;20263;-92
2024/01/06 02:40:28;;;;;;;24.93;10.53;;;;;;;;;;4949373;29;20199;-91
2024/01/06 02:43:33;;;;;;;21.60;10.03;;;;;;;;;;4949813;28;20215;-91
2024/01/06 02:46:38;;;;;;;24.97;10.20;;;;;;;;;;4948138;28;20227;-91
2024/01/06 02:49:44;;;;;;;19.90;9.73;;;;;;;;;;4931129;29;20195;-91
2024/01/06 02:52:50;;;;;;;20.27;10.57;;;;;;;;;;4941514;28;20584;-92
2024/01/06 02:55:56;;;;;;;21.70;10.03;;;;;;;;;;4941975;28;20236;-92
2024/01/06 02:59:01;;;;;;;19.70;9.37;;;;;;;;;;4941628;29;20176;-93
2024/01/06 03:02:06;;;;;;;21.67;10.17;;;;;;;;;;4941589;29;20199;-93
2024/01/06 03:05:12;;;;;;;21.17;10.00;;;;;;;;;;4942403;29;20200;-92
2024/01/06 03:08:19;;;;;;;20.50;10.40;;;;;;;;;;4944460;29;20687;-92
2024/01/06 03:11:24;;;;;;;22.50;10.27;;;;;;;;;;4942932;28;20219;-94
2024/01/06 03:14:29;;;;;;;26.93;11.00;;;;;;;;;;4941666;28;20188;-93
2024/01/06 03:17:35;;;;;;;19.70;10.13;;;;;;;;;;4942416;28;20180;-93
2024/01/06 03:20:40;;;;;;;18.70;10.40;;;;;;;;;;4941649;29;20199;-94
2024/01/06 03:23:47;;;;;;;21.60;9.57;;;;;;;;;;4941850;29;20191;-93
2024/01/06 03:26:53;;;;;;;25.57;10.77;;;;;;;;;;4946377;28;20187;-94
2024/01/06 03:29:58;;;;;;;22.03;12.37;;;;;;;;;;4943574;29;20216;-93
2024/01/06 03:33:03;;;;;;;21.73;11.13;;;;;;;;;;4943770;28;20200;-91
2024/01/06 03:36:09;;;;;;;24.57;12.73;;;;;;;;;;4943551;29;20179;-91
2024/01/06 03:39:16;;;;;;;25.03;12.43;;;;;;;;;;4932000;29;20658;-94
2024/01/06 03:42:21;;;;;;;28.07;13.10;;;;;;;;;;4942578;29;20208;-92
2024/01/06 03:45:26;;;;;;;24.97;11.87;;;;;;;;;;4931631;29;20232;-91
2024/01/06 03:48:32;;;;;;;22.97;11.97;;;;;;;;;;4942641;28;20224;-91
2024/01/06 03:51:37;;;;;;;24.23;12.87;;;;;;;;;;4940396;29;20702;-92
2024/01/06 03:54:44;;;;;;;21.13;11.53;;;;;;;;;;4931505;29;20183;-91
2024/01/06 03:57:49;;;;;;;21.87;11.97;;;;;;;;;;4932414;29;20216;-91
2024/01/06 04:00:59;;;;;;;22.77;11.13;;;;;;;;;;4941443;28;20188;-93
2024/01/06 04:04:05;;;;;;;25.90;11.93;;;;;;;;;;4943732;29;20192;-92
2024/01/06 04:07:10;;;;;;;23.57;12.00;;;;;;;;;;4931824;29;20188;-94
2024/01/06 04:10:17;;;;;;;21.33;11.70;;;;;;;;;;4942593;29;20220;-93
2024/01/06 04:13:24;;;;;;;26.07;12.20;;;;;;;;;;4931031;29;20188;-92
2024/01/06 04:16:29;;;;;;;21.80;11.90;;;;;;;;;;4941796;28;20668;-93
2024/01/06 04:19:35;;;;;;;24.73;12.37;;;;;;;;;;4940919;29;20253;-92
2024/01/06 04:22:40;;;;;;;28.77;13.77;;;;;;;;;;4940745;28;20293;-94
2024/01/06 04:25:47;;;;;;;31.00;14.23;;;;;;;;;;4930900;29;20172;-93
2024/01/06 04:28:52;;;;;;;21.30;11.07;;;;;;;;;;4940604;29;20207;-92
2024/01/06 04:31:57;;;;;;;18.20;10.73;;;;;;;;;;4941896;28;20227;-94
2024/01/06 04:35:02;;;;;;;23.80;11.33;;;;;;;;;;4930205;29;20192;-93
2024/01/06 04:38:07;;;;;;;23.90;11.97;;;;;;;;;;4941619;28;20658;-91
2024/01/06 04:41:15;;;;;;;21.40;11.23;;;;;;;;;;4941267;29;20199;-89
2024/01/06 04:44:22;;;;;;;22.13;11.43;;;;;;;;;;4931412;29;20301;-90
2024/01/06 04:47:30;;;;;;;21.50;10.93;;;;;;;;;;4932247;29;20287;-92
2024/01/06 04:50:35;;;;;;;22.87;11.60;;;;;;;;;;4942995;29;20223;-91
2024/01/06 04:53:40;;;;;;;19.63;11.47;;;;;;;;;;4945635;28;20183;-92
2024/01/06 04:56:47;;;;;;;20.47;10.97;;;;;;;;;;4932638;29;20309;-92
2024/01/06 04:59:52;;;;;;;21.13;10.77;;;;;;;;;;4933651;29;20216;-93
2024/01/06 05:02:58;;;;;;;20.00;10.70;;;;;;;;;;4944347;29;20555;-93
2024/01/06 05:06:03;;;;;;;20.77;10.63;;;;;;;;;;4955642;28;20215;-93
2024/01/06 05:09:08;;;;;;;19.83;10.53;;;;;;;;;;4972085;29;20179;-92
2024/01/06 05:12:14;;;;;;;18.87;10.10;;;;;;;;;;4971490;28;20218;-91
2024/01/06 05:15:20;;;;;;;16.77;8.40;;;;;;;;;;4972346;28;20194;-94
2024/01/06 05:18:25;;;;;;;16.77;8.13;;;;;;;;;;4971997;29;20615;-93
2024/01/06 05:21:36;;;;;;;0.77;0.77;;;;;;;;;;4972534;28;20250;-94
2024/01/06 05:24:41;;;;;;;1.03;0.97;;;;;;;;;;4971516;28;20198;-92
2024/01/06 05:27:48;;;;;;;1.03;0.97;;;;;;;;;;4970976;29;20786;-92
2024/01/06 05:30:54;;;;;;;1.07;1.07;;;;;;;;;;4970916;28;20262;-92
2024/01/06 05:34:01;;;;;;;1.23;1.07;;;;;;;;;;4971873;28;20231;-92
2024/01/06 05:37:06;;;;;;;1.23;1.13;;;;;;;;;;4972417;28;20189;-90
2024/01/06 05:40:11;;;;;;;2.13;1.50;;;;;;;;;;4970977;28;20194;-92
2024/01/06 05:43:19;;;;;;;0.77;0.77;;;;;;;;;;4970229;28;20186;-91
2024/01/06 05:46:24;;;;;;;1.03;0.93;;;;;;;;;;4970579;28;20629;-93
2024/01/06 05:49:29;;;;;;;1.60;0.90;;;;;;;;;;4972199;28;20190;-94
2024/01/06 05:52:35;;;;;;;1.50;1.20;;;;;;;;;;4971471;28;20218;-93
2024/01/06 05:55:40;;;;;;;2.43;0.93;;;;;;;;;;4970419;28;20187;-93
2024/01/06 05:58:47;;;;;;;1.90;1.17;;;;;;;;;;4970923;28;20174;-92
2024/01/06 06:01:53;;;;;;;0.57;0.57;;;;;;;;;;4970728;28;20179;-91
2024/01/06 06:04:58;;;;;;;1.83;0.90;;;;;;;;;;4970226;28;20195;-94
2024/01/06 06:08:04;;;;;;;0.83;0.80;;;;;;;;;;4970210;28;20183;-95
2024/01/06 06:11:12;;;;;;;0.97;0.90;;;;;;;;;;4970474;28;20211;-92
2024/01/06 06:14:19;;;;;;;0.90;0.90;;;;;;;;;;4971231;28;20182;-93
2024/01/06 06:17:25;;;;;;;0.67;0.63;;;;;;;;;;4969911;28;20174;-92
2024/01/06 06:20:34;;;;;;;0.93;0.83;;;;;;;;;;4970694;28;20198;-92
2024/01/06 06:23:39;;;;;;;1.47;1.30;;;;;;;;;;4970927;28;20314;-94
2024/01/06 06:26:45;;;;;;;0.97;0.87;;;;;;;;;;4970044;28;20226;-91
2024/01/06 06:29:52;;;;;;;0.63;0.63;;;;;;;;;;4970574;28;20174;-93
2024/01/06 06:32:57;;;;;;;2.95;1.77;;;;;;;;;;4969764;28;20194;-90
2024/01/06 06:36:03;;;;;;;1.10;1.00;;;;;;;;;;4969368;28;20183;-92
2024/01/06 06:39:08;;;;;;;1.00;1.00;;;;;;;;;;4969500;29;20237;-92
2024/01/06 06:42:14;;;;;;;2.37;0.83;;;;;;;;;;4968675;28;20194;-94
2024/01/06 06:45:22;;;;;;;2.80;1.53;;;;;;;;;;4969041;29;20207;-91
2024/01/06 06:48:27;;;;;;;2.33;1.53;;;;;;;;;;4969753;28;20186;-93
2024/01/06 06:51:32;;;;;;;0.70;0.70;;;;;;;;;;4969317;28;20218;-93
2024/01/06 06:54:37;;;;;;;1.17;1.07;;;;;;;;;;4970061;28;20190;-94
2024/01/06 06:57:43;;;;;;;0.55;0.55;;;;;;;;;;4969414;28;20250;-92
2024/01/06 07:00:50;;;;;;;1.00;1.00;;;;;;;;;;4968775;28;20758;-92
2024/01/06 07:03:55;;;;;;;1.43;1.37;;;;;;;;;;4969362;28;20183;-91
2024/01/06 07:07:00;;;;;;;2.40;1.57;;;;;;;;;;4968988;28;20268;-94
2024/01/06 07:10:06;;;;;;;1.40;1.17;;;;;;;;;;4970015;28;20562;-93
2024/01/06 07:13:11;;;;;;;1.33;1.23;;;;;;;;;;4968859;28;20198;-93
2024/01/06 07:16:18;;;;;;;0.80;0.80;;;;;;;;;;4968602;28;20198;-93
2024/01/06 07:19:24;;;;;;;1.67;1.37;;;;;;;;;;4969926;28;20181;-94
2024/01/06 07:22:29;;;;;;;1.23;1.03;;;;;;;;;;4970542;28;20190;-94
2024/01/06 07:25:34;;;;;;;1.53;1.03;;;;;;;;;;4970406;28;20268;-92
2024/01/06 07:28:39;;;;;;;3.90;1.30;;;;;;;;;;4969236;28;20191;-93
2024/01/06 07:31:47;;;;;;;3.60;1.63;;;;;;;;;;4969087;28;20752;-94
2024/01/06 07:34:55;;;;;;;2.33;1.27;;;;;;;;;;4967608;29;20183;-92
2024/01/06 07:38:02;;;;;;;1.20;1.10;;;;;;;;;;4968444;29;20190;-93
2024/01/06 07:41:08;;;;;;;1.10;1.00;;;;;;;;;;4969704;28;20190;-94
2024/01/06 07:44:15;;;;;;;0.83;0.83;;;;;;;;;;4969719;28;20202;-93
2024/01/06 07:47:22;;;;;;;0.83;0.83;;;;;;;;;;4968085;29;20230;-93
2024/01/06 07:50:28;;;;;;;2.33;1.70;;;;;;;;;;4969583;29;20186;-92
2024/01/06 07:53:34;;;;;;;2.80;1.60;;;;;;;;;;4970326;28;20171;-94
2024/01/06 07:56:39;;;;;;;1.67;1.20;;;;;;;;;;4968486;28;20250;-92
2024/01/06 07:59:44;;;;;;;1.87;1.00;;;;;;;;;;4968857;28;20191;-93
2024/01/06 08:02:51;;;;;;;1.43;1.27;;;;;;;;;;4969000;28;20194;-91
2024/01/06 08:05:56;;;;;;;1.95;1.33;;;;;;;;;;4969843;29;20191;-94
2024/01/06 08:09:03;;;;;;;1.00;1.00;;;;;;;;;;4970048;29;20195;-93
2024/01/06 08:12:08;;;;;;;0.73;0.73;;;;;;;;;;4970649;28;20214;-92
2024/01/06 08:15:14;;;;;;;0.95;0.70;;;;;;;;;;4970101;28;20272;-94
2024/01/06 08:18:21;;;;;;;1.95;1.30;;;;;;;;;;4971277;28;20269;-93
2024/01/06 08:21:28;;;;;;;0.70;0.70;;;;;;;;;;4973939;28;20190;-91
2024/01/06 08:24:34;;;;;;;5.75;3.10;;;;;;;;;;4975954;28;20722;-94
2024/01/06 08:27:40;;;;;;;2.17;1.05;;;;;;;;;;4976223;28;20194;-93
2024/01/06 08:30:45;;;;;;;1.50;1.02;;;;;;;;;;4976759;28;20186;-91
2024/01/06 08:33:53;;;;;;;2.17;0.80;;;;;;;;;;4974786;28;20198;-91
2024/01/06 08:36:58;;;;;;;1.77;1.15;;;;;;;;;;4959987;28;20203;-93
2024/01/06 08:40:05;;;;;;;1.25;1.15;;;;;;;;;;4957001;28;20260;-91
2024/01/06 08:43:11;;;;;;;1.00;0.90;;;;;;;;;;4957217;28;20269;-94
2024/01/06 08:46:17;;;;;;;1.02;0.93;;;;;;;;;;4956494;29;20725;-91
2024/01/06 08:49:24;;;;;;;1.27;1.00;;;;;;;;;;4955410;28;20187;-91
2024/01/06 08:52:30;;;;;;;3.28;1.17;;;;;;;;;;4955744;28;20339;-92
2024/01/06 08:55:37;;;;;;;1.10;1.10;;;;;;;;;;4954822;29;20186;-91
2024/01/06 08:58:43;;;;;;;1.88;1.10;;;;;;;;;;4953933;28;20195;-93
2024/01/06 09:01:48;;;;;;;3.72;0.95;;;;;;;;;;4934945;29;20192;-92
2024/01/06 09:04:59;;;;;;;1.95;0.90;;;;;;;;;;4935056;29;20343;-91
2024/01/06 09:08:04;;;;;;;2.72;1.23;;;;;;;;;;4947333;28;20209;-94
2024/01/06 09:11:10;;;;;;;3.53;0.98;;;;;;;;;;4963998;28;20207;-93
2024/01/06 09:14:15;;;;;;;1.02;0.85;;;;;;;;;;4954530;29;20202;-92
2024/01/06 09:17:22;;;;;;;2.15;1.25;;;;;;;;;;4951907;28;20195;-93
2024/01/06 09:20:29;;;;;;;0.50;0.50;;;;;;;;;;4968642;28;20205;-93
2024/01/06 09:23:35;;;;;;;0.65;0.65;;;;;;;;;;4965843;28;20214;-91
2024/01/06 09:26:40;;;;;;;0.52;0.52;;;;;;;;;;4970912;28;20187;-93
2024/01/06 09:29:50;;;;;;;1.10;1.00;;;;;;;;;;4969895;28;20187;-93
2024/01/06 09:32:56;;;;;;;0.93;0.85;;;;;;;;;;4969099;28;20245;-90
2024/01/06 09:36:03;;;;;;;1.55;0.57;;;;;;;;;;4952804;28;20194;-92
2024/01/06 09:39:09;;;;;;;2.00;1.48;;;;;;;;;;4933339;29;20187;-93
2024/01/06 09:42:14;;;;;;;1.20;1.13;;;;;;;;;;4944710;29;20199;-90
2024/01/06 09:45:20;;;;;;;0.75;0.75;;;;;;;;;;4949044;28;20194;-90
2024/01/06 09:48:30;;;;;;;0.73;0.73;;;;;;;;;;4954534;28;20202;-93
2024/01/06 09:51:38;;;;;;;2.40;1.25;;;;;;;;;;4971583;28;20250;-91
2024/01/06 09:54:48;;;;;;;0.52;0.52;;;;;;;;;;4954054;28;20255;-92
2024/01/06 09:57:54;;;;;;;0.80;0.80;;;;;;;;;;4954427;28;20211;-90
2024/01/06 10:01:01;;;;;;;3.30;1.35;;;;;;;;;;4954713;28;20199;-92
2024/01/06 10:04:07;;;;;;;1.23;1.13;;;;;;;;;;4952711;28;20697;-91
2024/01/06 10:07:14;;;;;;;1.27;1.17;;;;;;;;;;4953194;28;20211;-93
2024/01/06 10:10:20;;;;;;;3.08;1.17;;;;;;;;;;4951596;28;20180;-94
2024/01/06 10:13:26;;;;;;;0.60;0.60;;;;;;;;;;4950239;28;20244;-91
2024/01/06 10:16:36;;;;;;;0.82;0.82;;;;;;;;;;4957673;28;20207;-93
2024/01/06 10:19:41;;;;;;;0.57;0.57;;;;;;;;;;4935739;29;20213;-93
2024/01/06 10:22:49;;;;;;;1.80;1.20;;;;;;;;;;4960618;28;20202;-94
2024/01/06 10:25:55;;;;;;;0.90;0.90;;;;;;;;;;4972114;28;20291;-93
2024/01/06 10:29:00;;;;;;;0.95;0.88;;;;;;;;;;4943729;29;20195;-90
2024/01/06 10:32:06;;;;;;;1.60;1.08;;;;;;;;;;4944581;29;20313;-92
2024/01/06 10:35:13;;;;;;;1.38;1.27;;;;;;;;;;4943698;29;20188;-95
2024/01/06 10:38:21;;;;;;;1.33;0.98;;;;;;;;;;4945270;28;20231;-93
2024/01/06 10:41:27;;;;;;;1.75;1.63;;;;;;;;;;4952059;28;20190;-92
2024/01/06 10:44:33;;;;;;;1.08;1.00;;;;;;;;;;4949756;28;20215;-92
2024/01/06 10:47:39;;;;;;;1.23;1.15;;;;;;;;;;4950926;28;20214;-94
2024/01/06 10:50:45;;;;;;;1.58;1.40;;;;;;;;;;4951168;28;20273;-93
2024/01/06 10:53:52;;;;;;;1.10;1.00;;;;;;;;;;4952704;28;20214;-94
2024/01/06 10:56:59;;;;;;;1.85;1.20;;;;;;;;;;4933746;29;20684;-94
2024/01/06 11:00:06;;;;;;;0.57;0.57;;;;;;;;;;4942591;28;20385;-93
2024/01/06 11:03:12;;;;;;;0.95;0.95;;;;;;;;;;4946781;28;20263;-93
2024/01/06 11:06:19;;;;;;;1.20;1.10;;;;;;;;;;4951349;28;20255;-93
2024/01/06 11:09:41;;;;;;;0.77;0.77;;;;;;;;;;4951168;28;20207;-92
2024/01/06 11:12:47;;;;;;;1.45;1.08;;;;;;;;;;4950157;28;20215;-91
2024/01/06 11:15:54;;;;;;;1.83;1.02;;;;;;;;;;4950776;28;20179;-91
2024/01/06 11:18:59;;;;;;;1.30;1.20;;;;;;;;;;4951728;28;20195;-93
2024/01/06 11:22:20;;;;;;;0.70;0.70;;;;;;;;;;4938217;29;20274;-92
2024/01/06 11:25:27;;;;;;;1.73;1.52;;;;;;;;;;4933038;29;20195;-93
2024/01/06 11:28:33;;;;;;;0.77;0.77;;;;;;;;;;4942839;28;20320;-92
2024/01/06 11:31:39;;;;;;;0.85;0.85;;;;;;;;;;4931608;29;20254;-92
2024/01/06 11:34:49;;;;;;;1.75;1.65;;;;;;;;;;4933325;29;20261;-92
2024/01/06 11:37:56;;;;;;;1.85;1.67;;;;;;;;;;4933436;29;20200;-93
2024/01/06 11:41:04;;;;;;;1.45;1.25;;;;;;;;;;4932197;29;20188;-94
2024/01/06 11:44:10;;;;;;;1.10;1.02;;;;;;;;;;4931152;29;20176;-92
2024/01/06 11:47:17;;;;;;;1.17;1.08;;;;;;;;;;4931532;29;20228;-91
2024/01/06 11:50:23;;;;;;;6.78;1.27;;;;;;;;;;4931596;29;20244;-91
2024/01/06 11:53:29;;;;;;;0.60;0.60;;;;;;;;;;4932957;29;20223;-91
2024/01/06 11:56:37;;;;;;;0.40;0.40;;;;;;;;;;4931696;29;20187;-92
2024/01/06 11:59:48;;;;;;;1.58;1.25;;;;;;;;;;4932676;29;20188;-93
2024/01/06 12:02:58;;;;;;;1.48;1.13;;;;;;;;;;4931396;29;20203;-91
2024/01/06 12:06:05;;;;;;;1.60;1.23;;;;;;;;;;4933730;29;20229;-92
2024/01/06 12:09:14;;;;;;;1.05;0.60;;;;;;;;;;4933216;29;20277;-92
2024/01/06 12:12:21;;;;;;;0.60;0.60;;;;;;;;;;4932356;29;20192;-91
2024/01/06 12:15:26;;;;;;;2.78;1.58;;;;;;;;;;4933189;29;20191;-92
2024/01/06 12:18:33;;;;;;;1.67;1.13;;;;;;;;;;4933242;29;20195;-92
2024/01/06 12:21:39;;;;;;;5.15;1.65;;;;;;;;;;4934730;29;20547;-91
2024/01/06 12:24:44;;;;;;;3.67;1.60;;;;;;;;;;4935248;29;20184;-92
2024/01/06 12:27:54;;;;;;;1.23;1.13;;;;;;;;;;4932970;29;20180;-92
2024/01/06 12:31:00;;;;;;;1.38;1.27;;;;;;;;;;4931932;29;20184;-94
2024/01/06 12:34:07;;;;;;;1.75;0.90;;;;;;;;;;4933022;29;20215;-93
2024/01/06 12:37:15;;;;;;;1.33;1.13;;;;;;;;;;4933752;29;20667;-92
2024/01/06 12:40:21;;;;;;;2.60;1.80;;;;;;;;;;4932968;29;20199;-93
2024/01/06 12:43:28;;;;;;;2.13;1.70;;;;;;;;;;4933505;29;20221;-92
2024/01/06 12:46:34;;;;;;;1.95;1.05;;;;;;;;;;4931899;29;20203;-93
2024/01/06 12:49:41;;;;;;;0.73;0.73;;;;;;;;;;4932818;29;20236;-94
2024/01/06 12:52:47;;;;;;;2.97;1.45;;;;;;;;;;4933342;29;20253;-93
2024/01/06 12:55:52;;;;;;;0.70;0.70;;;;;;;;;;4932106;29;20188;-93
2024/01/06 12:59:01;;;;;;;0.95;0.95;;;;;;;;;;4932889;29;20192;-93
2024/01/06 13:02:06;;;;;;;1.27;0.80;;;;;;;;;;4933071;29;20229;-94
2024/01/06 13:05:12;;;;;;;1.52;1.13;;;;;;;;;;4933570;29;20203;-93
2024/01/06 13:08:21;;;;;;;0.77;0.77;;;;;;;;;;4937588;29;20191;-93
2024/01/06 13:11:28;;;;;;;1.63;1.42;;;;;;;;;;4936915;29;20184;-94
2024/01/06 13:14:35;;;;;;;1.45;1.35;;;;;;;;;;4935229;29;20220;-94
2024/01/06 13:17:41;;;;;;;6.30;1.73;;;;;;;;;;4934384;29;20240;-93
2024/01/06 13:20:49;;;;;;;1.63;1.25;;;;;;;;;;4933931;29;20220;-92
2024/01/06 13:24:00;;;;;;;1.27;0.88;;;;;;;;;;4935303;29;20208;-92
2024/01/06 13:27:06;;;;;;;3.85;1.85;;;;;;;;;;4934663;29;20192;-92
2024/01/06 13:30:14;;;;;;;1.27;1.08;;;;;;;;;;4935425;29;20229;-92
2024/01/06 13:33:20;;;;;;;0.88;0.85;;;;;;;;;;4935360;29;20375;-92
2024/01/06 13:36:26;;;;;;;6.05;1.27;;;;;;;;;;4935738;29;20217;-90
2024/01/06 13:39:31;;;;;;;1.75;1.50;;;;;;;;;;4935092;29;20203;-93
2024/01/06 13:42:37;;;;;;;7.18;1.40;;;;;;;;;;4934991;29;20183;-94
2024/01/06 13:45:48;;;;;;;2.83;1.58;;;;;;;;;;4936229;29;20228;-95
2024/01/06 13:48:53;;;;;;;4.78;1.45;;;;;;;;;;4935057;29;20184;-92
2024/01/06 13:52:00;;;;;;;2.80;1.40;;;;;;;;;;4935488;29;20175;-93
2024/01/06 13:55:06;;;;;;;1.38;0.98;;;;;;;;;;4935538;29;20200;-93
2024/01/06 13:58:13;;;;;;;1.20;0.88;;;;;;;;;;4935803;29;20197;-91
2024/01/06 14:01:20;;;;;;;0.90;0.90;;;;;;;;;;4946304;28;20191;-92
2024/01/06 14:04:26;;;;;;;1.02;0.95;;;;;;;;;;4933599;29;20277;-93
2024/01/06 14:07:33;;;;;;;1.52;1.42;;;;;;;;;;4931792;29;20531;-91
2024/01/06 14:10:45;;;;;;;1.58;1.40;;;;;;;;;;4931292;29;20179;-90
2024/01/06 14:13:52;;;;;;;0.60;0.60;;;;;;;;;;4931514;29;20219;-95
2024/01/06 14:16:59;;;;;;;0.75;0.75;;;;;;;;;;4930719;29;20192;-93
2024/01/06 14:20:06;;;;;;;1.92;1.38;;;;;;;;;;4931441;29;20183;-92
2024/01/06 14:23:15;;;;;;;1.92;1.35;;;;;;;;;;4930507;29;20251;-92
2024/01/06 14:26:21;;;;;;;1.50;1.40;;;;;;;;;;4934854;29;20197;-93
2024/01/06 14:29:27;;;;;;;0.93;0.93;;;;;;;;;;4934987;29;20187;-93
2024/01/06 14:32:35;;;;;;;0.77;0.77;;;;;;;;;;4946710;28;20195;-91
2024/01/06 15:43:21;;;;;;;1.35;1.25;;;;;;;;;;5541526;23;20321;-92
2024/01/06 15:46:32;;;;;;;0.95;0.82;;;;;;;;;;4973207;28;20202;-93
2024/01/06 15:49:55;;;;;;;2.95;1.35;;;;;;;;;;4983587;28;20250;-92
2024/01/06 15:53:01;;;;;;;1.75;1.40;;;;;;;;;;4973987;28;20203;-93
2024/01/06 15:56:07;;;;;;;1.80;1.70;;;;;;;;;;4984458;28;20195;-93
2024/01/06 15:59:15;;;;;;;0.73;0.73;;;;;;;;;;4987378;28;20234;-90
2024/01/06 16:02:21;;;;;;;1.60;1.23;;;;;;;;;;4987620;28;20568;-95
2024/01/06 16:58:16;;;;;;;1.25;1.15;;;;;;;;;;5385528;23;20259;-93
2024/01/06 17:01:21;;;;;;;1.13;1.02;;;;;;;;;;4952723;28;20194;-94
2024/01/06 17:04:28;;;;;;;1.80;1.35;;;;;;;;;;4965295;28;20634;-93
2024/01/06 17:07:33;;;;;;;2.75;2.20;;;;;;;;;;4952022;29;20191;-90
2024/01/06 17:10:39;;;;;;;3.72;2.63;;;;;;;;;;4964935;28;20182;-93
2024/01/06 17:13:49;;;;;;;0.88;0.88;;;;;;;;;;4954626;28;20307;-92
2024/01/06 17:16:55;;;;;;;2.60;2.30;;;;;;;;;;4965599;28;20191;-94
2024/01/06 17:20:01;;;;;;;2.47;1.85;;;;;;;;;;4954718;28;20199;-92
2024/01/06 17:23:07;;;;;;;1.55;1.45;;;;;;;;;;4964450;29;20636;-92
2024/01/06 17:26:13;;;;;;;3.85;1.88;;;;;;;;;;4953690;29;20549;-93
2024/01/06 17:29:20;;;;;;;2.53;1.30;;;;;;;;;;4962853;28;20199;-92
2024/01/06 17:32:26;;;;;;;1.23;1.15;;;;;;;;;;4952943;29;20244;-93
2024/01/06 17:35:31;;;;;;;7.07;1.70;;;;;;;;;;4953790;28;20211;-92
2024/01/06 17:38:37;;;;;;;4.50;1.30;;;;;;;;;;4954868;29;20255;-94
2024/01/06 17:41:42;;;;;;;2.60;1.88;;;;;;;;;;4954738;29;20202;-92
2024/01/06 17:44:50;;;;;;;2.63;1.80;;;;;;;;;;4955190;29;20179;-93
2024/01/06 17:47:56;;;;;;;3.58;2.15;;;;;;;;;;4954963;29;20203;-94
2024/01/06 17:51:03;;;;;;;1.80;1.55;;;;;;;;;;4954151;28;20240;-94
2024/01/06 17:54:16;;;;;;;2.55;1.30;;;;;;;;;;4966918;28;20211;-96
2024/01/06 17:57:24;;;;;;;1.02;1.02;;;;;;;;;;4954964;29;20203;-92
2024/01/06 18:00:31;;;;;;;1.48;1.33;;;;;;;;;;4933288;29;20664;-93
2024/01/06 18:03:37;;;;;;;1.88;1.20;;;;;;;;;;4960088;29;20217;-92
2024/01/06 23:00:54;;;;;;;2.83;1.87;;;;;;;;;;6140713;22;1315854;-91
2024/01/06 23:04:01;;;;;;;2.08;1.60;;;;;;;;;;6162484;23;20171;-89
2024/01/06 23:07:06;;;;;;;3.10;1.20;;;;;;;;;;6175266;23;20271;-93
2024/01/06 23:10:12;;;;;;;2.17;1.43;;;;;;;;;;6173149;23;20175;-89
2024/01/06 23:13:19;;;;;;;0.80;0.80;;;;;;;;;;6172708;23;20173;-93
2024/01/06 23:16:26;;;;;;;2.27;1.63;;;;;;;;;;6172930;23;20196;-91
2024/01/06 23:19:31;;;;;;;1.40;1.30;;;;;;;;;;6172868;23;20172;-93
2024/01/06 23:22:37;;;;;;;2.67;1.63;;;;;;;;;;6173137;23;20172;-95
2024/01/06 23:25:44;;;;;;;1.20;1.07;;;;;;;;;;6174159;23;20168;-91
2024/01/06 23:28:49;;;;;;;5.97;1.40;;;;;;;;;;6174336;23;20192;-91
2024/01/06 23:31:56;;;;;;;1.27;1.17;;;;;;;;;;6174634;23;20176;-91
2024/01/06 23:35:01;;;;;;;1.87;1.40;;;;;;;;;;6173395;23;20176;-91
2024/01/06 23:38:07;;;;;;;2.57;1.03;;;;;;;;;;6172756;23;20172;-92
2024/01/06 23:41:15;;;;;;;0.90;0.90;;;;;;;;;;6174341;23;20188;-91
2024/01/06 23:44:20;;;;;;;1.43;1.33;;;;;;;;;;6172851;23;20165;-92
2024/01/06 23:47:27;;;;;;;3.57;2.43;;;;;;;;;;6171807;23;20231;-92
2024/01/06 23:50:32;;;;;;;1.13;1.03;;;;;;;;;;6172401;23;20584;-93
2024/01/06 23:53:37;;;;;;;4.13;1.88;;;;;;;;;;6172096;23;20173;-92
2024/01/06 23:56:42;;;;;;;1.27;1.17;;;;;;;;;;6172458;23;20189;-93
2024/01/06 23:59:47;;;;;;;1.45;1.35;;;;;;;;;;6172398;23;20168;-93
